createdAt,value
2023-05-19T00:02:10.375Z,2.35
2023-05-19T00:04:38.057Z,2.28
2023-05-19T00:07:05.996Z,4.07
2023-05-19T00:09:33.310Z,1.40
2023-05-19T00:12:01.003Z,1.50
2023-05-19T00:14:29.443Z,2.25
2023-05-19T00:16:58.383Z,1.67
2023-05-19T00:19:25.775Z,1.27
2023-05-19T00:21:52.834Z,1.40
2023-05-19T00:24:19.953Z,2.15
2023-05-19T00:26:46.932Z,1.60
2023-05-19T00:29:18.811Z,1.92
2023-05-19T00:31:45.830Z,4.40
2023-05-19T00:34:12.870Z,1.35
2023-05-19T00:36:39.887Z,2.70
2023-05-19T00:39:06.996Z,1.20
2023-05-19T00:41:34.083Z,2.65
2023-05-19T00:44:01.194Z,1.35
2023-05-19T00:46:28.753Z,1.40
2023-05-19T00:48:55.832Z,1.75
2023-05-19T00:51:24.677Z,1.58
2023-05-19T00:53:52.509Z,1.20
2023-05-19T00:56:20.384Z,1.60
2023-05-19T00:58:47.634Z,1.65
2023-05-19T01:01:17.475Z,1.45
2023-05-19T01:03:45.224Z,2.33
2023-05-19T01:06:12.517Z,1.10
2023-05-19T01:08:45.943Z,1.33
2023-05-19T01:11:12.981Z,1.45
2023-05-19T01:13:41.911Z,1.20
2023-05-19T01:16:37.866Z,1.85
2023-05-19T01:19:51.428Z,1.52
2023-05-19T01:22:36.745Z,1.73
2023-05-19T01:25:22.087Z,1.20
2023-05-19T01:28:26.505Z,1.83
2023-05-19T01:30:55.967Z,1.77
2023-05-19T01:33:24.176Z,0.95
2023-05-19T01:35:52.183Z,2.13
2023-05-19T01:38:21.303Z,1.25
2023-05-19T01:40:49.888Z,1.40
2023-05-19T01:43:22.665Z,2.58
2023-05-19T01:45:51.277Z,1.88
2023-05-19T01:48:18.875Z,1.50
2023-05-19T01:50:46.271Z,1.83
2023-05-19T01:53:13.459Z,2.15
2023-05-19T01:55:49.921Z,1.65
2023-05-19T01:58:45.841Z,1.33
2023-05-19T02:01:34.488Z,2.30
2023-05-19T02:04:25.168Z,1.83
2023-05-19T02:06:52.104Z,5.38
2023-05-19T02:09:26.159Z,1.33
2023-05-19T02:12:00.730Z,2.22
2023-05-19T02:14:35.863Z,1.77
2023-05-19T02:17:05.292Z,1.10
2023-05-19T02:19:37.643Z,3.83
2023-05-19T02:22:05.023Z,1.25
2023-05-19T02:24:32.187Z,2.58
2023-05-19T02:26:59.149Z,2.20
2023-05-19T02:29:26.274Z,2.80
2023-05-19T02:31:53.272Z,1.52
2023-05-19T02:34:20.316Z,1.73
2023-05-19T02:36:50.151Z,1.88
2023-05-19T02:39:17.262Z,1.73
2023-05-19T02:41:44.200Z,1.35
2023-05-19T02:44:11.168Z,2.72
2023-05-19T02:46:38.205Z,1.80
2023-05-19T02:49:05.239Z,4.15
2023-05-19T02:51:32.265Z,1.58
2023-05-19T02:53:59.323Z,1.90
2023-05-19T02:56:26.769Z,1.63
2023-05-19T02:58:53.840Z,1.95
2023-05-19T03:01:23.409Z,2.17
2023-05-19T03:03:50.609Z,2.85
2023-05-19T03:06:18.387Z,2.50
2023-05-19T03:08:45.563Z,2.28
2023-05-19T03:11:12.550Z,1.58
2023-05-19T03:13:39.538Z,2.90
2023-05-19T03:16:08.486Z,1.45
2023-05-19T03:18:35.748Z,3.05
2023-05-19T03:21:02.745Z,1.77
2023-05-19T03:23:29.903Z,1.80
2023-05-19T03:25:56.955Z,2.13
2023-05-19T03:28:24.193Z,2.60
2023-05-19T03:30:51.193Z,2.20
2023-05-19T03:33:18.385Z,2.58
2023-05-19T03:35:45.656Z,1.67
2023-05-19T03:38:12.695Z,2.40
2023-05-19T03:40:39.716Z,2.10
2023-05-19T03:43:07.660Z,3.97
2023-05-19T03:45:34.692Z,1.50
2023-05-19T03:48:01.851Z,1.98
2023-05-19T03:50:29.546Z,1.50
2023-05-19T03:52:56.647Z,2.28
2023-05-19T03:55:24.476Z,2.00
2023-05-19T03:57:52.921Z,1.98
2023-05-19T04:00:20.615Z,3.25
2023-05-19T04:02:47.768Z,3.45
2023-05-19T04:05:15.127Z,2.65
2023-05-19T04:07:43.356Z,2.88
2023-05-19T04:10:10.848Z,3.75
2023-05-19T04:12:37.811Z,5.18
2023-05-19T04:15:06.366Z,2.30
2023-05-19T04:17:33.437Z,6.20
2023-05-19T04:20:00.456Z,2.72
2023-05-19T04:22:27.555Z,2.58
2023-05-19T04:24:55.381Z,2.50
2023-05-19T04:27:22.548Z,2.65
2023-05-19T04:29:50.052Z,2.72
2023-05-19T04:32:19.783Z,4.30
2023-05-19T04:34:46.945Z,3.35
2023-05-19T04:37:16.838Z,2.67
2023-05-19T04:39:45.675Z,3.28
2023-05-19T04:42:13.463Z,3.88
2023-05-19T04:44:40.614Z,2.60
2023-05-19T04:47:09.287Z,2.72
2023-05-19T04:49:39.594Z,2.53
2023-05-19T04:52:08.021Z,3.43
2023-05-19T04:54:35.925Z,5.50
2023-05-19T04:57:03.385Z,2.92
2023-05-19T04:59:30.392Z,8.02
2023-05-19T05:01:57.814Z,4.57
2023-05-19T05:04:24.953Z,3.65
2023-05-19T05:06:52.245Z,3.17
2023-05-19T05:09:20.556Z,3.22
2023-05-19T05:11:47.909Z,2.45
2023-05-19T05:14:15.220Z,2.65
2023-05-19T05:16:42.926Z,2.83
2023-05-19T05:19:10.294Z,4.10
2023-05-19T05:21:37.757Z,5.00
2023-05-19T05:24:05.161Z,3.03
2023-05-19T05:26:34.200Z,2.90
2023-05-19T05:29:01.301Z,3.10
2023-05-19T05:31:28.335Z,2.92
2023-05-19T05:33:55.575Z,4.47
2023-05-19T05:36:22.700Z,4.20
2023-05-19T05:38:49.622Z,3.60
2023-05-19T05:41:16.644Z,2.50
2023-05-19T05:43:43.708Z,4.88
2023-05-19T05:46:11.083Z,3.22
2023-05-19T05:48:38.554Z,3.47
2023-05-19T05:51:06.469Z,2.58
2023-05-19T05:53:37.585Z,4.45
2023-05-19T05:58:33.622Z,3.38
2023-05-19T06:01:02.788Z,3.88
2023-05-19T06:03:29.794Z,4.28
2023-05-19T06:05:56.885Z,3.00
2023-05-19T06:08:23.998Z,3.42
2023-05-19T06:10:51.039Z,4.50
2023-05-19T06:13:22.598Z,2.88
2023-05-19T06:15:49.963Z,4.47
2023-05-19T06:18:17.340Z,5.68
2023-05-19T06:20:44.436Z,3.58
2023-05-19T06:23:11.649Z,2.70
2023-05-19T06:25:38.778Z,10.77
2023-05-19T06:28:06.402Z,23.75
2023-05-19T06:30:33.912Z,26.15
2023-05-19T06:33:01.174Z,36.67
2023-05-19T06:35:28.359Z,24.05
2023-05-19T06:37:56.832Z,22.08
2023-05-19T06:40:24.062Z,21.10
2023-05-19T06:42:51.308Z,15.77
2023-05-19T06:45:22.332Z,19.10
2023-05-19T06:50:16.800Z,19.02
2023-05-19T06:52:44.794Z,77.22
2023-05-19T06:55:11.845Z,18.48
2023-05-19T06:57:39.156Z,20.85
2023-05-19T07:00:10.038Z,10.43
2023-05-19T07:02:37.255Z,14.50
2023-05-19T07:05:04.766Z,13.13
2023-05-19T07:07:31.944Z,31.58
2023-05-19T07:09:59.092Z,54.10
2023-05-19T07:12:27.082Z,21.17
2023-05-19T07:14:54.286Z,22.23
2023-05-19T07:17:24.281Z,22.55
2023-05-19T07:19:51.587Z,19.58
2023-05-19T07:22:18.836Z,17.80
2023-05-19T07:24:46.060Z,28.48
2023-05-19T07:27:13.100Z,39.78
2023-05-19T07:29:40.170Z,28.25
2023-05-19T07:32:07.635Z,24.10
2023-05-19T07:34:34.949Z,15.75
2023-05-19T07:37:02.679Z,16.40
2023-05-19T07:39:30.073Z,15.93
2023-05-19T07:41:57.555Z,55.33
2023-05-19T07:44:24.671Z,63.08
2023-05-19T07:46:52.033Z,50.50
2023-05-19T07:49:19.409Z,24.10
2023-05-19T07:51:46.837Z,32.63
2023-05-19T07:54:14.011Z,49.15
2023-05-19T07:56:41.788Z,39.75
2023-05-19T07:59:09.110Z,29.73
2023-05-19T08:01:36.694Z,35.90
2023-05-19T08:04:04.279Z,17.27
2023-05-19T08:06:32.246Z,24.45
2023-05-19T08:08:59.715Z,29.25
2023-05-19T08:11:27.113Z,71.68
2023-05-19T08:13:54.308Z,26.13
2023-05-19T08:16:21.819Z,14.50
2023-05-19T08:18:49.030Z,25.38
2023-05-19T08:21:16.201Z,45.03
2023-05-19T08:23:43.357Z,53.10
2023-05-19T08:26:10.491Z,47.28
2023-05-19T08:28:37.741Z,45.72
2023-05-19T08:31:04.916Z,32.95
2023-05-19T08:33:32.248Z,74.35
2023-05-19T08:35:59.481Z,27.58
2023-05-19T08:38:27.236Z,15.82
2023-05-19T08:40:55.007Z,23.73
2023-05-19T08:43:22.515Z,60.30
2023-05-19T08:45:50.443Z,20.48
2023-05-19T08:48:19.316Z,15.88
2023-05-19T08:51:12.712Z,17.67
2023-05-19T08:53:44.417Z,16.63
2023-05-19T08:56:15.341Z,32.42
2023-05-19T09:01:17.299Z,46.80
2023-05-19T09:03:46.669Z,39.47
2023-05-19T09:06:15.122Z,67.47
2023-05-19T09:08:43.270Z,39.30
2023-05-19T09:11:11.318Z,27.98
2023-05-19T09:13:38.886Z,25.00
2023-05-19T09:16:07.103Z,21.00
2023-05-19T09:18:34.539Z,22.27
2023-05-19T09:21:05.328Z,27.70
2023-05-19T09:23:36.963Z,19.85
2023-05-19T09:26:08.164Z,16.73
2023-05-19T09:28:37.268Z,21.88
2023-05-19T09:31:06.511Z,15.43
2023-05-19T09:33:35.865Z,12.02
2023-05-19T09:36:06.043Z,11.60
2023-05-19T09:38:33.646Z,12.65
2023-05-19T09:41:01.783Z,13.65
2023-05-19T09:43:34.021Z,9.55
2023-05-19T09:46:04.775Z,13.18
2023-05-19T09:48:31.994Z,12.45
2023-05-19T09:51:01.691Z,11.50
2023-05-19T09:53:30.666Z,14.20
2023-05-19T09:55:58.662Z,8.43
2023-05-19T09:58:27.356Z,6.30
2023-05-19T10:00:57.521Z,10.43
2023-05-19T10:03:26.014Z,8.10
2023-05-19T10:05:54.152Z,19.80
2023-05-19T10:08:24.486Z,6.43
2023-05-19T10:10:52.876Z,15.38
2023-05-19T10:13:22.207Z,18.52
2023-05-19T10:18:21.571Z,12.32
2023-05-19T10:20:50.521Z,18.20
2023-05-19T10:23:17.746Z,28.58
2023-05-19T10:25:45.363Z,17.23
2023-05-19T10:28:17.749Z,10.45
2023-05-19T10:30:51.303Z,8.18
2023-05-19T10:33:23.474Z,9.18
2023-05-19T10:36:09.714Z,12.95
2023-05-19T10:38:45.420Z,11.63
2023-05-19T10:41:40.225Z,16.45
2023-05-19T10:44:23.539Z,9.40
2023-05-19T10:46:51.699Z,10.57
2023-05-19T10:49:23.413Z,12.63
2023-05-19T10:51:52.680Z,12.85
2023-05-19T10:54:41.207Z,10.60
2023-05-19T10:57:10.327Z,7.45
2023-05-19T10:59:39.691Z,8.52
2023-05-19T11:02:09.717Z,7.63
2023-05-19T11:04:51.130Z,9.55
2023-05-19T11:07:21.190Z,9.18
2023-05-19T11:09:52.940Z,10.20
2023-05-19T11:12:25.366Z,5.45
2023-05-19T11:14:56.013Z,10.88
2023-05-19T11:17:26.095Z,6.95
2023-05-19T11:19:57.933Z,5.45
2023-05-19T11:22:28.947Z,6.38
2023-05-19T11:27:28.879Z,16.33
2023-05-19T11:32:29.709Z,24.35
2023-05-19T11:34:58.327Z,12.30
2023-05-19T11:37:25.448Z,14.77
2023-05-19T11:39:53.756Z,11.25
2023-05-19T11:42:21.035Z,8.75
2023-05-19T11:44:48.143Z,13.82
2023-05-19T11:47:16.564Z,10.85
2023-05-19T11:49:45.309Z,18.98
2023-05-19T11:52:12.551Z,19.73
2023-05-19T11:54:42.207Z,18.83
2023-05-19T11:57:11.268Z,13.32
2023-05-19T11:59:41.018Z,12.80
2023-05-19T12:02:21.848Z,19.45
2023-05-19T12:04:49.872Z,18.00
2023-05-19T12:07:19.332Z,28.45
2023-05-19T12:09:47.740Z,19.65
2023-05-19T12:12:17.403Z,16.38
2023-05-19T12:14:46.562Z,78.93
2023-05-19T12:17:15.222Z,84.70
2023-05-19T12:19:44.881Z,51.65
2023-05-19T12:22:12.248Z,34.53
2023-05-19T12:24:40.540Z,52.15
2023-05-19T12:27:21.237Z,25.92
2023-05-19T12:29:53.048Z,23.35
2023-05-19T12:32:24.497Z,20.45
2023-05-19T12:34:52.656Z,16.27
2023-05-19T12:37:20.395Z,18.88
2023-05-19T12:39:49.374Z,28.85
2023-05-19T12:42:17.042Z,21.50
2023-05-19T12:44:50.400Z,22.85
2023-05-19T12:47:20.482Z,19.75
2023-05-19T12:49:57.252Z,17.45
2023-05-19T12:52:24.509Z,18.80
2023-05-19T12:54:59.371Z,13.82
2023-05-19T12:57:27.660Z,11.70
2023-05-19T13:00:01.147Z,11.70
2023-05-19T13:02:32.396Z,15.68
2023-05-19T13:05:00.014Z,12.93
2023-05-19T13:07:27.182Z,13.77
2023-05-19T13:09:54.772Z,12.85
2023-05-19T13:12:22.005Z,15.52
2023-05-19T13:14:49.112Z,18.20
2023-05-19T13:17:16.481Z,11.13
2023-05-19T13:19:43.739Z,13.48
2023-05-19T13:22:10.897Z,19.55
2023-05-19T13:24:38.120Z,71.97
2023-05-19T13:27:06.163Z,20.17
2023-05-19T13:29:33.372Z,43.22
2023-05-19T13:32:01.449Z,51.85
2023-05-19T13:34:28.835Z,43.00
2023-05-19T13:36:55.949Z,15.73
2023-05-19T13:39:23.108Z,13.60
2023-05-19T13:41:50.912Z,18.33
2023-05-19T13:44:17.889Z,20.05
2023-05-19T13:46:46.519Z,15.90
2023-05-19T13:49:15.094Z,13.90
2023-05-19T13:51:44.002Z,16.90
2023-05-19T13:54:11.856Z,14.70
2023-05-19T13:56:39.146Z,17.00
2023-05-19T13:59:06.154Z,16.20
2023-05-19T14:01:33.579Z,12.30
2023-05-19T14:04:01.138Z,13.25
2023-05-19T14:06:28.567Z,28.33
2023-05-19T14:08:55.634Z,16.83
2023-05-19T14:11:22.956Z,10.05
2023-05-19T14:13:53.237Z,12.95
2023-05-19T14:16:22.345Z,10.15
2023-05-19T14:18:49.774Z,11.30
2023-05-19T14:21:17.013Z,16.90
2023-05-19T14:23:44.248Z,35.05
2023-05-19T14:26:11.339Z,16.00
2023-05-19T14:28:38.608Z,14.52
2023-05-19T14:31:06.704Z,13.10
2023-05-19T14:33:35.690Z,34.50
2023-05-19T14:36:03.146Z,14.95
2023-05-19T14:38:30.334Z,15.80
2023-05-19T14:40:57.550Z,38.60
2023-05-19T14:43:24.884Z,26.65
2023-05-19T14:45:51.995Z,18.05
2023-05-19T14:48:19.114Z,9.57
2023-05-19T14:50:48.647Z,22.08
2023-05-19T14:53:16.651Z,17.83
2023-05-19T14:55:44.099Z,18.45
2023-05-19T14:58:26.739Z,15.38
2023-05-19T15:00:55.206Z,12.05
2023-05-19T15:03:23.620Z,13.07
2023-05-19T15:05:51.007Z,15.90
2023-05-19T15:08:18.076Z,13.23
2023-05-19T15:10:49.312Z,10.57
2023-05-19T15:13:19.186Z,19.75
2023-05-19T15:15:46.470Z,55.25
2023-05-19T15:18:16.467Z,26.33
2023-05-19T15:20:44.417Z,16.65
2023-05-19T15:23:11.551Z,60.53
2023-05-19T15:25:38.910Z,13.15
2023-05-19T15:28:06.034Z,25.17
2023-05-19T15:30:33.587Z,27.98
2023-05-19T15:33:01.337Z,29.38
2023-05-19T15:35:28.426Z,26.98
2023-05-19T15:37:55.477Z,15.60
2023-05-19T15:40:22.704Z,18.70
2023-05-19T15:42:49.758Z,18.08
2023-05-19T15:45:20.262Z,59.03
2023-05-19T15:47:48.893Z,31.65
2023-05-19T15:50:16.898Z,33.47
2023-05-19T15:52:44.403Z,32.60
2023-05-19T15:55:11.936Z,29.08
2023-05-19T15:57:39.023Z,28.40
2023-05-19T16:00:06.867Z,27.73
2023-05-19T16:02:34.250Z,22.20
2023-05-19T16:05:01.724Z,12.63
2023-05-19T16:07:28.921Z,15.27
2023-05-19T16:09:56.166Z,16.73
2023-05-19T16:12:24.634Z,17.48
2023-05-19T16:14:51.721Z,11.07
2023-05-19T16:17:18.788Z,15.55
2023-05-19T16:19:46.486Z,10.50
2023-05-19T16:22:13.819Z,16.52
2023-05-19T16:24:41.592Z,13.00
2023-05-19T16:27:08.681Z,7.75
2023-05-19T16:29:36.108Z,25.83
2023-05-19T16:32:03.260Z,30.80
2023-05-19T16:34:30.737Z,23.92
2023-05-19T16:36:57.973Z,18.25
2023-05-19T16:39:25.029Z,29.42
2023-05-19T16:41:53.334Z,25.85
2023-05-19T16:44:20.421Z,29.63
2023-05-19T16:46:47.433Z,29.10
2023-05-19T16:49:14.570Z,30.20
2023-05-19T16:51:41.619Z,20.05
2023-05-19T16:54:08.725Z,29.40
2023-05-19T16:56:35.904Z,53.22
2023-05-19T16:59:03.036Z,31.10
2023-05-19T17:01:31.858Z,25.45
2023-05-19T17:03:59.229Z,30.83
2023-05-19T17:06:26.493Z,44.25
2023-05-19T17:08:54.153Z,20.40
2023-05-19T17:11:21.971Z,17.63
2023-05-19T17:13:49.156Z,19.50
2023-05-19T17:16:16.417Z,21.60
2023-05-19T17:18:44.126Z,34.95
2023-05-19T17:21:11.347Z,26.40
2023-05-19T17:23:38.660Z,29.50
2023-05-19T17:26:05.721Z,29.13
2023-05-19T17:28:32.957Z,28.23
2023-05-19T17:30:59.976Z,24.52
2023-05-19T17:33:27.488Z,21.77
2023-05-19T17:35:55.715Z,20.13
2023-05-19T17:38:23.269Z,19.58
2023-05-19T17:40:50.451Z,20.17
2023-05-19T17:43:17.965Z,32.75
2023-05-19T17:45:45.054Z,31.20
2023-05-19T17:48:12.348Z,27.38
2023-05-19T17:50:39.430Z,26.08
2023-05-19T17:53:07.107Z,24.10
2023-05-19T17:55:34.868Z,29.70
2023-05-19T17:58:02.240Z,24.35
2023-05-19T18:00:29.889Z,73.00
2023-05-19T18:02:57.949Z,31.65
2023-05-19T18:05:25.500Z,26.23
2023-05-19T18:07:55.460Z,39.47
2023-05-19T18:10:23.971Z,25.15
2023-05-19T18:12:51.011Z,22.38
2023-05-19T18:15:18.220Z,25.13
2023-05-19T18:17:45.285Z,26.98
2023-05-19T18:20:13.100Z,19.85
2023-05-19T18:22:40.363Z,27.35
2023-05-19T18:25:07.898Z,37.42
2023-05-19T18:27:35.197Z,34.42
2023-05-19T18:30:02.350Z,31.98
2023-05-19T18:32:29.490Z,70.90
2023-05-19T18:34:56.924Z,36.47
2023-05-19T18:37:24.066Z,18.05
2023-05-19T18:39:51.414Z,31.75
2023-05-19T18:42:18.733Z,16.80
2023-05-19T18:44:51.068Z,34.72
2023-05-19T18:47:23.273Z,59.97
2023-05-19T18:49:50.697Z,32.13
2023-05-19T18:52:19.591Z,25.00
2023-05-19T18:54:47.567Z,23.63
2023-05-19T18:57:15.567Z,18.13
2023-05-19T18:59:42.881Z,21.50
2023-05-19T19:02:10.290Z,16.23
2023-05-19T19:04:37.917Z,17.63
2023-05-19T19:07:07.237Z,14.05
2023-05-19T19:09:36.126Z,18.33
2023-05-19T19:12:03.902Z,13.60
2023-05-19T19:14:31.436Z,11.73
2023-05-19T19:16:58.806Z,11.27
2023-05-19T19:19:28.838Z,13.90
2023-05-19T19:21:56.556Z,12.60
2023-05-19T19:24:24.256Z,12.20
2023-05-19T19:26:51.624Z,9.63
2023-05-19T19:29:22.313Z,11.48
2023-05-19T19:31:49.784Z,8.07
2023-05-19T19:34:20.239Z,9.73
2023-05-19T19:36:48.260Z,38.10
2023-05-19T19:39:15.687Z,22.90
2023-05-19T19:41:43.056Z,15.85
2023-05-19T19:44:10.467Z,19.42
2023-05-19T19:46:37.951Z,18.08
2023-05-19T19:49:07.015Z,10.02
2023-05-19T19:51:34.866Z,36.30
2023-05-19T19:54:02.370Z,22.02
2023-05-19T19:56:29.641Z,70.57
2023-05-19T19:58:59.255Z,40.30
2023-05-19T20:01:28.189Z,39.72
2023-05-19T20:03:56.531Z,236.98
2023-05-19T20:06:24.385Z,90.55
2023-05-19T20:08:51.619Z,43.58
2023-05-19T20:11:20.634Z,81.65
2023-05-19T20:13:48.099Z,55.30
2023-05-19T20:16:15.959Z,76.65
2023-05-19T20:18:43.967Z,40.88
2023-05-19T20:21:11.544Z,37.40
2023-05-19T20:23:41.358Z,25.75
2023-05-19T20:26:12.765Z,24.70
2023-05-19T20:28:40.852Z,20.48
2023-05-19T20:31:08.403Z,19.05
2023-05-19T20:33:35.961Z,33.20
2023-05-19T20:36:05.321Z,15.93
2023-05-19T20:38:32.927Z,24.05
2023-05-19T20:41:05.078Z,15.90
2023-05-19T20:43:33.762Z,20.80
2023-05-19T20:46:04.324Z,17.67
2023-05-19T20:48:33.464Z,12.88
2023-05-19T20:51:01.161Z,14.95
2023-05-19T20:53:28.491Z,12.95
2023-05-19T20:55:56.608Z,14.27
2023-05-19T20:58:28.011Z,11.35
2023-05-19T21:00:58.340Z,10.60
2023-05-19T21:03:27.432Z,13.05
2023-05-19T21:05:55.772Z,16.95
2023-05-19T21:08:27.423Z,10.35
2023-05-19T21:10:55.340Z,11.05
2023-05-19T21:13:24.632Z,16.55
2023-05-19T21:15:54.579Z,12.35
2023-05-19T21:18:23.693Z,19.70
2023-05-19T21:20:52.454Z,11.90
2023-05-19T21:23:19.909Z,6.25
2023-05-19T21:25:48.155Z,7.10
2023-05-19T21:28:15.581Z,8.18
2023-05-19T21:30:47.328Z,10.88
2023-05-19T21:33:16.973Z,8.55
2023-05-19T21:35:48.816Z,6.50
2023-05-19T21:40:50.669Z,9.07
2023-05-19T21:43:18.048Z,7.03
2023-05-19T21:45:46.828Z,13.18
2023-05-19T21:48:16.466Z,9.32
2023-05-19T21:50:44.224Z,8.07
2023-05-19T21:53:11.609Z,11.85
2023-05-19T21:55:39.899Z,10.57
2023-05-19T21:58:07.582Z,10.88
2023-05-19T22:00:37.796Z,6.78
2023-05-19T22:03:05.942Z,6.70
2023-05-19T22:05:36.000Z,10.32
2023-05-19T22:08:03.358Z,9.00
2023-05-19T22:10:30.687Z,8.98
2023-05-19T22:12:58.407Z,7.47
2023-05-19T22:15:25.562Z,5.95
2023-05-19T22:17:53.121Z,8.25
2023-05-19T22:20:20.516Z,8.10
2023-05-19T22:22:48.351Z,6.60
2023-05-19T22:25:16.648Z,7.95
2023-05-19T22:27:43.945Z,7.75
2023-05-19T22:30:11.201Z,7.82
2023-05-19T22:32:38.325Z,6.88
2023-05-19T22:35:07.022Z,6.15
2023-05-19T22:37:34.618Z,7.78
2023-05-19T22:40:01.858Z,5.80
2023-05-19T22:42:29.115Z,8.80
2023-05-19T22:44:56.719Z,5.47
2023-05-19T22:47:24.017Z,7.38
2023-05-19T22:49:51.928Z,7.07
2023-05-19T22:52:19.026Z,6.35
2023-05-19T22:54:46.071Z,5.97
2023-05-19T22:57:13.239Z,5.22
2023-05-19T22:59:41.522Z,8.63
2023-05-19T23:02:08.628Z,5.97
2023-05-19T23:04:36.420Z,6.50
2023-05-19T23:07:03.753Z,6.75
2023-05-19T23:09:31.002Z,7.57
2023-05-19T23:11:58.230Z,5.85
2023-05-19T23:14:26.422Z,6.53
2023-05-19T23:16:53.562Z,8.50
2023-05-19T23:19:21.035Z,7.35
2023-05-19T23:21:49.455Z,5.88
2023-05-19T23:24:16.951Z,5.72
2023-05-19T23:26:44.613Z,6.20
2023-05-19T23:29:13.719Z,6.85
2023-05-19T23:31:44.959Z,5.97
2023-05-19T23:34:12.049Z,5.22
2023-05-19T23:36:39.546Z,6.65
2023-05-19T23:39:06.851Z,6.30
2023-05-19T23:41:34.111Z,4.13
2023-05-19T23:44:01.294Z,7.40
2023-05-19T23:46:28.416Z,5.20
2023-05-19T23:48:55.535Z,5.82
2023-05-19T23:51:22.606Z,5.85
2023-05-19T23:53:49.787Z,5.63
2023-05-19T23:56:16.805Z,4.30
2023-05-19T23:58:43.960Z,6.00
